Time;durP1;ratioP1;P1;durP2;ratioP2;P2;SDS_P1;SDS_P2;PMS_P1;PMS_P2;Temp;Humidity;BMP_temperature;BMP_pressure;BME280_temperature;BME280_humidity;BME280_pressure;Samples;Min_cycle;Max_cycle;Signal;HPM_P1;HPM_P2
2021/12/21 00:00:34;;;;;;;7.97;4.50;;;0.20;99.90;;;;;;4864464;29;20040;-86
2021/12/21 00:03:03;;;;;;;8.30;4.35;;;0.20;99.90;;;;;;4865000;29;20041;-85
2021/12/21 00:05:30;;;;;;;9.75;5.53;;;0.20;99.90;;;;;;4880516;29;20073;-86
2021/12/21 00:08:03;;;;;;;10.82;4.90;;;0.10;99.90;;;;;;4882695;29;20097;-86
2021/12/21 00:10:33;;;;;;;8.75;4.43;;;0.10;99.90;;;;;;4883922;29;20037;-86
2021/12/21 00:19:04;;;;;;;7.80;4.85;;;0.00;99.90;;;;;;4879224;29;20056;-88
2021/12/21 00:23:57;;;;;;;10.10;5.05;;;-0.10;99.90;;;;;;4880937;29;20044;-87
2021/12/21 00:26:28;;;;;;;9.30;4.85;;;-0.10;99.90;;;;;;4882515;29;20108;-87
2021/12/21 00:28:58;;;;;;;10.23;5.28;;;-0.10;99.90;;;;;;4860106;29;20057;-87
2021/12/21 00:31:28;;;;;;;10.98;4.82;;;-0.10;99.90;;;;;;4861902;29;20029;-88
2021/12/21 00:33:55;;;;;;;9.27;4.55;;;-0.10;99.90;;;;;;4862729;29;20053;-85
2021/12/21 00:36:25;;;;;;;8.73;4.55;;;-0.10;99.90;;;;;;4863815;29;20057;-85
2021/12/21 00:38:54;;;;;;;10.07;4.82;;;-0.10;99.90;;;;;;4863957;29;20038;-85
2021/12/21 00:41:27;;;;;;;8.93;4.82;;;-0.20;99.90;;;;;;4863907;29;20438;-86
2021/12/21 00:44:03;;;;;;;10.40;5.03;;;-0.20;99.90;;;;;;4863725;29;20030;-86
2021/12/21 00:46:33;;;;;;;8.48;4.70;;;-0.30;99.90;;;;;;4848084;29;20064;-85
2021/12/21 00:49:12;;;;;;;10.52;4.78;;;-0.30;99.90;;;;;;4848849;29;20092;-85
2021/12/21 00:51:42;;;;;;;11.65;5.60;;;-0.30;99.90;;;;;;4872089;29;20045;-86
2021/12/21 00:54:09;;;;;;;10.23;5.38;;;-0.30;99.90;;;;;;4863840;29;20030;-86
2021/12/21 00:56:57;;;;;;;8.27;5.00;;;-0.30;99.90;;;;;;4871566;29;20036;-87
2021/12/21 00:59:25;;;;;;;8.57;4.93;;;-0.40;99.90;;;;;;4886780;29;20025;-87
2021/12/21 01:01:54;;;;;;;12.45;5.20;;;-0.40;99.90;;;;;;4884690;29;20013;-86
2021/12/21 01:04:30;;;;;;;9.77;5.13;;;-0.40;99.90;;;;;;4851135;29;20128;-86
2021/12/21 01:07:18;;;;;;;8.52;4.85;;;-0.50;99.90;;;;;;4850676;29;20092;-87
2021/12/21 01:10:30;;;;;;;10.05;5.20;;;-0.50;99.90;;;;;;4865343;29;20037;-86
2021/12/21 01:18:16;;;;;;;11.50;5.47;;;-0.60;99.90;;;;;;4864238;29;20042;-87
2021/12/21 01:21:00;;;;;;;8.82;4.60;;;-0.60;99.90;;;;;;4863900;29;20479;-87
2021/12/21 01:23:57;;;;;;;10.23;5.22;;;-0.60;99.90;;;;;;4851627;29;20030;-85
2021/12/21 01:29:26;;;;;;;8.07;4.57;;;-0.60;99.90;;;;;;4854808;29;20065;-85
2021/12/21 01:32:17;;;;;;;10.93;4.97;;;-0.60;99.90;;;;;;4864601;29;20033;-86
2021/12/21 01:35:02;;;;;;;8.82;4.68;;;-0.60;99.90;;;;;;4873112;29;20038;-86
2021/12/21 01:51:00;;;;;;;10.48;6.13;;;-0.70;99.90;;;;;;4865152;29;20040;-87
2021/12/21 01:53:30;;;;;;;10.88;5.30;;;-0.70;99.90;;;;;;4848875;29;20045;-86
2021/12/21 01:56:00;;;;;;;10.00;5.38;;;-0.70;99.90;;;;;;4863949;29;20036;-86
2021/12/21 01:58:27;;;;;;;8.23;5.05;;;-0.70;99.90;;;;;;4833749;29;20089;-86
2021/12/21 02:00:57;;;;;;;10.10;5.63;;;-0.70;99.90;;;;;;4863077;29;20053;-86
2021/12/21 02:03:28;;;;;;;9.82;4.75;;;-0.80;99.90;;;;;;4864186;29;20037;-86
2021/12/21 02:06:07;;;;;;;12.57;5.28;;;-0.80;99.90;;;;;;4863476;29;20046;-86
2021/12/21 02:08:35;;;;;;;10.90;5.43;;;-0.80;99.90;;;;;;4863942;29;20493;-86
2021/12/21 02:11:04;;;;;;;9.00;5.18;;;-0.80;99.90;;;;;;4863007;29;20030;-87
2021/12/21 02:13:43;;;;;;;9.98;5.50;;;-0.80;99.90;;;;;;4878551;29;20037;-86
2021/12/21 02:16:12;;;;;;;9.52;4.90;;;-0.80;99.90;;;;;;4863753;29;20029;-86
2021/12/21 02:18:52;;;;;;;10.00;4.95;;;-0.80;99.90;;;;;;4847550;29;20038;-87
2021/12/21 02:21:32;;;;;;;11.02;5.10;;;-0.80;99.90;;;;;;4864383;29;20116;-86
2021/12/21 02:24:22;;;;;;;10.25;6.22;;;-0.90;99.90;;;;;;4864470;29;20081;-87
2021/12/21 02:30:14;;;;;;;11.02;6.25;;;-0.90;99.90;;;;;;4839672;29;20061;-87
2021/12/21 02:32:41;;;;;;;8.30;5.40;;;-1.00;99.90;;;;;;4861577;29;20046;-87
2021/12/21 02:35:08;;;;;;;9.25;5.50;;;-1.00;99.90;;;;;;4862877;29;20530;-87
2021/12/21 02:37:39;;;;;;;9.23;5.10;;;-1.00;99.90;;;;;;4861521;29;20044;-90
2021/12/21 02:40:06;;;;;;;8.38;5.60;;;-1.00;99.90;;;;;;4865498;29;20052;-88
2021/12/21 02:42:33;;;;;;;8.40;5.10;;;-1.00;99.90;;;;;;4879653;29;20085;-89
2021/12/21 02:45:06;;;;;;;10.48;5.40;;;-1.00;99.90;;;;;;4876172;29;20025;-87
2021/12/21 02:47:32;;;;;;;11.52;5.05;;;-1.00;99.90;;;;;;4903765;29;20103;-87
2021/12/21 02:49:59;;;;;;;8.60;5.15;;;-1.00;99.90;;;;;;4901930;29;20481;-87
2021/12/21 02:52:27;;;;;;;9.68;5.35;;;-1.00;99.90;;;;;;4897271;29;20061;-89
2021/12/21 02:54:57;;;;;;;8.48;4.80;;;-1.00;99.90;;;;;;4882008;29;20044;-89
2021/12/21 02:57:23;;;;;;;8.98;5.13;;;-1.00;99.90;;;;;;4878836;29;20041;-86
2021/12/21 03:00:10;;;;;;;9.25;4.68;;;-1.00;99.90;;;;;;4863356;29;20177;-88
2021/12/21 03:02:38;;;;;;;9.50;5.57;;;-1.00;99.90;;;;;;4863418;29;20033;-88
2021/12/21 03:05:07;;;;;;;7.82;4.53;;;-1.00;99.90;;;;;;4861081;29;20094;-89
2021/12/21 03:10:25;;;;;;;7.35;4.75;;;-1.00;99.90;;;;;;4862721;29;20030;-90
2021/12/21 03:15:39;;;;;;;8.45;5.32;;;-1.00;99.90;;;;;;4860523;29;20052;-90
2021/12/21 03:18:05;;;;;;;7.60;4.72;;;-1.00;99.90;;;;;;4862388;29;20105;-89
2021/12/21 03:20:32;;;;;;;9.32;5.00;;;-1.00;99.90;;;;;;4862079;29;20138;-89
2021/12/21 03:23:17;;;;;;;10.55;5.55;;;-1.00;99.90;;;;;;4848541;29;20053;-89
2021/12/21 03:25:46;;;;;;;10.38;5.38;;;-1.10;99.90;;;;;;4867501;29;20029;-88
2021/12/21 03:28:13;;;;;;;9.60;5.15;;;-1.10;99.90;;;;;;4865649;29;20029;-88
2021/12/21 03:30:40;;;;;;;9.02;5.18;;;-1.10;99.90;;;;;;4881490;29;20135;-87
2021/12/21 03:33:09;;;;;;;12.10;6.47;;;-1.10;99.90;;;;;;4880056;29;20037;-89
2021/12/21 03:35:36;;;;;;;8.05;5.07;;;-1.10;99.90;;;;;;4881885;29;20411;-88
2021/12/21 03:38:08;;;;;;;8.95;5.13;;;-1.10;99.90;;;;;;4864513;29;20389;-89
2021/12/21 03:40:38;;;;;;;9.00;5.20;;;-1.10;99.90;;;;;;4880118;29;20115;-89
2021/12/21 03:43:06;;;;;;;10.15;4.95;;;-1.20;99.90;;;;;;4864868;29;20068;-89
2021/12/21 03:45:38;;;;;;;9.90;5.18;;;-1.10;99.90;;;;;;4880226;29;20036;-89
2021/12/21 03:48:12;;;;;;;8.13;4.88;;;-1.10;99.90;;;;;;4865380;29;20057;-88
2021/12/21 03:50:40;;;;;;;8.43;5.18;;;-1.10;99.90;;;;;;4881093;29;20053;-90
2021/12/21 03:53:06;;;;;;;8.63;5.03;;;-1.10;99.90;;;;;;4882553;29;20025;-88
2021/12/21 03:55:34;;;;;;;7.65;5.00;;;-1.10;99.90;;;;;;4886033;29;20058;-89
2021/12/21 03:58:02;;;;;;;10.35;5.00;;;-1.10;99.90;;;;;;4851473;29;20123;-88
2021/12/21 04:00:31;;;;;;;10.13;5.35;;;-1.10;99.90;;;;;;4879426;29;20065;-88
2021/12/21 04:03:00;;;;;;;9.35;4.50;;;-1.10;99.90;;;;;;4877419;29;20052;-88
2021/12/21 04:05:26;;;;;;;9.70;5.00;;;-1.10;99.90;;;;;;4879927;29;20029;-89
2021/12/21 04:07:55;;;;;;;7.75;4.32;;;-1.10;99.90;;;;;;4879660;29;20061;-89
2021/12/21 04:10:22;;;;;;;9.27;5.05;;;-1.10;99.90;;;;;;4883977;29;20029;-89
2021/12/21 04:13:14;;;;;;;8.02;4.72;;;-1.10;99.90;;;;;;4883512;29;20034;-89
2021/12/21 04:15:52;;;;;;;9.50;5.53;;;-1.10;99.90;;;;;;4867880;29;20029;-87
2021/12/21 04:18:44;;;;;;;9.02;4.60;;;-1.10;99.90;;;;;;4883711;29;20028;-89
2021/12/21 04:21:49;;;;;;;10.30;5.72;;;-1.10;99.90;;;;;;4883864;29;20037;-88
2021/12/21 04:24:16;;;;;;;8.13;4.72;;;-1.10;99.90;;;;;;4852060;29;20081;-89
2021/12/21 04:26:48;;;;;;;10.02;5.70;;;-1.10;99.90;;;;;;4868446;29;20029;-89
2021/12/21 04:29:14;;;;;;;10.27;6.57;;;-1.20;99.90;;;;;;4864789;29;20128;-89
2021/12/21 04:31:48;;;;;;;11.73;6.13;;;-1.20;99.90;;;;;;4880487;29;20025;-89
2021/12/21 04:34:30;;;;;;;9.57;5.68;;;-1.10;99.90;;;;;;4880855;29;20034;-90
2021/12/21 04:36:58;;;;;;;9.27;6.07;;;-1.20;99.90;;;;;;4878241;29;20058;-89
2021/12/21 04:39:52;;;;;;;10.50;5.50;;;-1.20;99.90;;;;;;4887770;29;20029;-89
2021/12/21 04:42:17;;;;;;;9.75;5.35;;;-1.20;99.90;;;;;;4887506;29;20053;-88
2021/12/21 04:44:46;;;;;;;11.27;6.35;;;-1.20;99.90;;;;;;4877539;29;20085;-89
2021/12/21 04:47:24;;;;;;;10.55;6.63;;;-1.20;99.90;;;;;;4880918;29;20430;-89
2021/12/21 04:49:54;;;;;;;12.10;6.45;;;-1.20;99.90;;;;;;4880341;29;20029;-88
2021/12/21 04:52:21;;;;;;;11.23;6.32;;;-1.20;99.90;;;;;;4880692;29;20428;-88
2021/12/21 04:54:51;;;;;;;11.05;6.88;;;-1.20;99.90;;;;;;4880735;29;20170;-88
2021/12/21 04:57:22;;;;;;;10.77;6.75;;;-1.20;99.90;;;;;;4880463;29;20040;-88
2021/12/21 04:59:52;;;;;;;11.27;6.57;;;-1.20;99.90;;;;;;4864960;29;20026;-89
2021/12/21 05:02:23;;;;;;;10.07;6.72;;;-1.20;99.90;;;;;;4856354;29;20084;-88
2021/12/21 05:04:58;;;;;;;13.32;6.50;;;-1.20;99.90;;;;;;4881927;29;20046;-89
2021/12/21 05:07:31;;;;;;;11.70;7.13;;;-1.20;99.90;;;;;;4864770;29;20057;-89
2021/12/21 05:10:01;;;;;;;10.40;6.85;;;-1.20;99.90;;;;;;4879600;29;20431;-89
2021/12/21 05:12:30;;;;;;;11.13;6.95;;;-1.20;99.90;;;;;;4864297;29;20420;-89
2021/12/21 05:15:17;;;;;;;12.13;7.10;;;-1.20;99.90;;;;;;4863919;29;20034;-89
2021/12/21 05:17:44;;;;;;;10.27;6.63;;;-1.20;99.90;;;;;;4879405;29;20090;-88
2021/12/21 05:20:16;;;;;;;10.43;6.85;;;-1.20;99.90;;;;;;4878823;29;20026;-91
2021/12/21 05:22:48;;;;;;;10.88;7.10;;;-1.10;99.90;;;;;;4864239;29;20390;-90
2021/12/21 05:25:19;;;;;;;13.85;7.47;;;-1.20;99.90;;;;;;4848431;29;20033;-88
2021/12/21 05:27:46;;;;;;;10.45;6.88;;;-1.20;99.90;;;;;;4878964;29;20164;-90
2021/12/21 05:30:18;;;;;;;12.60;7.68;;;-1.20;99.90;;;;;;4878549;29;20057;-90
2021/12/21 05:32:49;;;;;;;12.07;7.22;;;-1.20;99.90;;;;;;4878991;29;20060;-89
2021/12/21 05:35:20;;;;;;;11.65;7.40;;;-1.20;99.90;;;;;;4879835;29;20060;-89
2021/12/21 05:38:08;;;;;;;11.20;7.40;;;-1.20;99.90;;;;;;4862887;29;20044;-89
2021/12/21 05:40:44;;;;;;;11.07;7.20;;;-1.20;99.90;;;;;;4846441;29;20033;-89
2021/12/21 05:43:13;;;;;;;10.52;7.45;;;-1.20;99.90;;;;;;4861171;29;20486;-89
2021/12/21 05:45:49;;;;;;;11.75;7.03;;;-1.20;99.90;;;;;;4845747;29;20497;-89
2021/12/21 05:48:41;;;;;;;12.85;7.32;;;-1.30;99.90;;;;;;4862403;29;20489;-89
2021/12/21 05:51:12;;;;;;;11.05;6.93;;;-1.30;99.90;;;;;;4877558;29;20375;-89
2021/12/21 05:54:06;;;;;;;11.38;7.53;;;-1.20;99.90;;;;;;4871791;29;20072;-89
2021/12/21 05:56:47;;;;;;;13.40;7.82;;;-1.20;99.90;;;;;;4862674;29;20053;-88
2021/12/21 05:59:19;;;;;;;10.90;7.70;;;-1.30;99.90;;;;;;4876350;29;20805;-89
2021/12/21 06:01:53;;;;;;;12.40;8.38;;;-1.30;99.90;;;;;;4862691;29;20116;-90
2021/12/21 06:04:28;;;;;;;13.43;8.55;;;-1.30;99.90;;;;;;4860803;29;20025;-89
2021/12/21 06:06:54;;;;;;;12.45;8.23;;;-1.40;99.90;;;;;;4861738;29;20102;-89
2021/12/21 06:09:30;;;;;;;14.45;8.05;;;-1.40;99.90;;;;;;4879645;29;20042;-88
2021/12/21 06:24:20;;;;;;;12.38;8.10;;;-1.50;99.90;;;;;;4880306;29;20508;-88
2021/12/21 06:26:28;;;;;;;12.88;7.70;;;-1.50;99.90;;;;;;4877187;29;20041;-89
2021/12/21 06:29:02;;;;;;;10.75;7.57;;;-1.50;99.90;;;;;;4885915;29;20132;-89
2021/12/21 06:31:34;;;;;;;13.02;7.63;;;-1.40;99.90;;;;;;4885210;29;20044;-89
2021/12/21 06:34:04;;;;;;;12.60;7.88;;;-1.40;99.90;;;;;;4893921;29;20035;-89
2021/12/21 06:36:33;;;;;;;12.73;7.40;;;-1.40;99.90;;;;;;4904118;29;20073;-89
2021/12/21 06:39:05;;;;;;;12.95;8.20;;;-1.40;99.90;;;;;;4905329;29;20024;-89
2021/12/21 06:41:36;;;;;;;12.88;8.05;;;-1.40;99.90;;;;;;4889183;29;20029;-88
2021/12/21 06:44:04;;;;;;;11.38;7.70;;;-1.40;99.90;;;;;;4884399;29;20032;-90
2021/12/21 06:46:48;;;;;;;12.30;8.80;;;-1.40;99.90;;;;;;4884789;29;20040;-89
2021/12/21 06:52:16;;;;;;;12.10;7.65;;;-1.40;99.90;;;;;;4900764;29;20182;-89
2021/12/21 06:54:42;;;;;;;14.05;8.35;;;-1.30;99.90;;;;;;4883653;29;20063;-88
2021/12/21 06:57:55;;;;;;;13.10;7.55;;;-1.40;99.90;;;;;;4885537;29;20043;-88
2021/12/21 07:00:27;;;;;;;14.70;8.32;;;-1.30;99.90;;;;;;4812467;29;20056;-88
2021/12/21 07:03:00;;;;;;;12.85;7.50;;;-1.40;99.90;;;;;;4813742;29;20034;-89
2021/12/21 07:05:36;;;;;;;12.23;7.45;;;-1.40;99.90;;;;;;4869007;29;20045;-88
2021/12/21 07:08:14;;;;;;;12.90;7.40;;;-1.40;99.90;;;;;;4895601;29;20052;-89
2021/12/21 07:10:51;;;;;;;11.65;7.32;;;-1.40;99.90;;;;;;4872848;29;20075;-88
2021/12/21 07:19:33;;;;;;;10.38;7.07;;;-1.40;99.90;;;;;;4898557;29;20048;-88
2021/12/21 07:22:04;;;;;;;11.98;7.35;;;-1.40;99.90;;;;;;4885830;29;20311;-90
2021/12/21 07:24:40;;;;;;;13.95;8.02;;;-1.40;99.90;;;;;;4883391;29;20032;-91
2021/12/21 07:27:06;;;;;;;12.13;7.80;;;-1.40;99.90;;;;;;4894280;29;20108;-90
2021/12/21 07:29:36;;;;;;;11.45;7.43;;;-1.40;99.90;;;;;;4891101;29;20048;-90
2021/12/21 07:32:27;;;;;;;12.18;7.57;;;-1.40;99.90;;;;;;4880340;29;20097;-91
2021/12/21 07:34:59;;;;;;;16.30;9.23;;;-1.40;99.90;;;;;;4871636;29;20029;-90
2021/12/21 07:37:32;;;;;;;11.55;7.50;;;-1.30;99.90;;;;;;4890052;29;20093;-90
2021/12/21 07:40:21;;;;;;;15.18;8.25;;;-1.30;99.90;;;;;;4864994;29;20104;-91
2021/12/21 07:43:12;;;;;;;15.65;8.32;;;-1.40;99.90;;;;;;4882372;29;20119;-88
2021/12/21 07:45:45;;;;;;;13.40;8.98;;;-1.40;99.90;;;;;;4855548;29;20049;-89
2021/12/21 07:48:44;;;;;;;;;;;;;;;;;;;;;
2021/12/21 07:51:31;;;;;;;15.20;8.82;;;-1.40;99.90;;;;;;4867007;29;20052;-90
2021/12/21 07:54:03;;;;;;;14.00;9.13;;;-1.40;99.90;;;;;;4884097;29;20120;-90
2021/12/21 07:57:00;;;;;;;13.77;8.57;;;-1.40;99.90;;;;;;4883086;29;20040;-90
2021/12/21 07:59:53;;;;;;;14.10;8.38;;;-1.40;99.90;;;;;;4856776;29;20486;-89
2021/12/21 08:02:28;;;;;;;11.77;8.35;;;-1.40;99.90;;;;;;4877010;29;20124;-90
2021/12/21 08:05:08;;;;;;;13.40;8.18;;;-1.40;99.90;;;;;;4882346;29;20033;-89
2021/12/21 08:07:53;;;;;;;11.48;7.88;;;-1.30;99.90;;;;;;4884447;29;20033;-89
2021/12/21 08:10:44;;;;;;;12.85;8.13;;;-1.30;99.90;;;;;;4869968;29;20565;-90
2021/12/21 08:13:18;;;;;;;13.77;8.60;;;-1.30;99.90;;;;;;4883757;29;20058;-88
2021/12/21 08:15:55;;;;;;;12.18;8.82;;;-1.30;99.90;;;;;;4906095;29;20021;-89
2021/12/21 08:18:44;;;;;;;14.30;9.82;;;-1.30;99.90;;;;;;4897174;29;20032;-91
2021/12/21 08:21:25;;;;;;;15.13;9.10;;;-1.30;99.90;;;;;;4884397;29;20028;-89
2021/12/21 08:24:48;;;;;;;16.83;9.95;;;-1.30;99.90;;;;;;4884773;29;20066;-90
2021/12/21 08:27:23;;;;;;;16.17;10.23;;;-1.20;99.90;;;;;;4873500;29;20056;-91
2021/12/21 08:29:59;;;;;;;14.60;9.10;;;-1.20;99.90;;;;;;4882317;29;20072;-91
2021/12/21 08:32:48;;;;;;;16.45;11.07;;;-1.20;99.90;;;;;;4883636;29;20083;-89
2021/12/21 08:35:29;;;;;;;16.88;9.57;;;-1.10;99.90;;;;;;4883970;29;20065;-90
2021/12/21 08:38:14;;;;;;;15.10;10.43;;;-1.10;99.90;;;;;;4865362;29;20029;-91
2021/12/21 08:40:57;;;;;;;15.57;10.15;;;-1.00;99.90;;;;;;4879234;29;20040;-91
2021/12/21 08:46:19;;;;;;;16.60;10.20;;;-0.90;99.90;;;;;;4882956;29;20524;-90
2021/12/21 08:48:49;;;;;;;12.88;8.48;;;-0.80;99.90;;;;;;4883284;29;20289;-93
2021/12/21 08:51:18;;;;;;;;;;;-0.80;99.90;;;;;;4882628;29;20108;-91
2021/12/21 08:53:45;;;;;;;16.55;9.27;;;-0.80;99.90;;;;;;4883374;29;19942;-90
2021/12/21 08:56:11;;;;;;;14.25;8.68;;;-0.70;99.90;;;;;;4883509;29;20021;-91
2021/12/21 08:58:39;;;;;;;18.48;10.25;;;-0.70;99.90;;;;;;4869674;29;20051;-92
2021/12/21 09:01:08;;;;;;;16.42;9.98;;;-0.70;99.90;;;;;;4882786;29;20131;-90
2021/12/21 09:03:45;;;;;;;14.88;9.93;;;-0.60;99.90;;;;;;4885948;29;20052;-92
2021/12/21 09:06:12;;;;;;;15.05;10.05;;;-0.60;99.90;;;;;;4868901;29;20490;-90
2021/12/21 09:08:44;;;;;;;14.95;10.88;;;-0.40;99.90;;;;;;4878932;29;20092;-92
2021/12/21 09:11:16;;;;;;;17.80;11.45;;;0.10;99.90;;;;;;4885478;29;20040;-93
2021/12/21 09:14:23;;;;;;;17.55;11.73;;;0.40;99.90;;;;;;4879787;29;20041;-93
2021/12/21 09:17:28;;;;;;;23.77;14.88;;;0.90;99.90;;;;;;4896319;29;20442;-91
2021/12/21 09:20:12;;;;;;;26.15;16.10;;;2.50;99.90;;;;;;4881430;29;20492;-92
2021/12/21 09:23:00;;;;;;;20.80;13.77;;;4.00;99.90;;;;;;4867552;29;20077;-92
2021/12/21 09:25:58;;;;;;;22.40;14.35;;;5.20;99.90;;;;;;4889773;29;20029;-94
2021/12/21 09:29:06;;;;;;;;;;;;;;;;;;;;;
2021/12/21 09:35:34;;;;;;;;;;;;;;;;;;;;;
2021/12/21 09:38:32;;;;;;;16.80;12.13;;;8.80;99.90;;;;;;4826270;29;20044;-93
2021/12/21 09:41:37;;;;;;;;;;;;;;;;;;;;;
2021/12/21 09:44:22;;;;;;;16.63;11.60;;;9.60;99.90;;;;;;4862549;29;20037;-94
2021/12/21 09:46:54;;;;;;;15.25;11.05;;;9.80;99.90;;;;;;4849547;29;20061;-92
2021/12/21 09:49:26;;;;;;;19.38;12.25;;;10.00;99.90;;;;;;4864570;29;20042;-93
2021/12/21 09:52:06;;;;;;;17.10;12.32;;;10.20;99.90;;;;;;4872964;29;20065;-92
2021/12/21 09:54:44;;;;;;;19.90;13.52;;;10.30;99.90;;;;;;4885233;29;20026;-91
2021/12/21 09:57:16;;;;;;;18.40;12.07;;;10.60;99.90;;;;;;4896016;29;20071;-91
2021/12/21 09:59:53;;;;;;;15.68;11.15;;;10.80;99.90;;;;;;4853060;29;20084;-92
2021/12/21 10:02:25;;;;;;;16.90;11.50;;;11.30;99.90;;;;;;4847987;29;20033;-92
2021/12/21 10:05:06;;;;;;;17.10;12.02;;;11.70;99.90;;;;;;4863733;29;20089;-93
2021/12/21 10:07:49;;;;;;;;;;;;;;;;;;;;;
2021/12/21 10:10:48;;;;;;;14.73;10.27;;;12.30;99.90;;;;;;4862852;29;20025;-93
2021/12/21 10:13:23;;;;;;;14.70;10.23;;;12.50;99.90;;;;;;4864450;29;20040;-92
2021/12/21 10:16:20;;;;;;;;;;;;;;;;;;;;;
2021/12/21 10:22:24;;;;;;;15.23;10.27;;;13.60;99.90;;;;;;4884057;29;20052;-91
2021/12/21 10:25:04;;;;;;;14.80;11.63;;;13.90;99.90;;;;;;4881736;29;20473;-91
2021/12/21 10:28:10;;;;;;;14.88;11.40;;;14.10;99.90;;;;;;4900317;29;20052;-92
2021/12/21 10:30:55;;;;;;;15.18;10.85;;;14.20;99.90;;;;;;4914161;29;20064;-93
2021/12/21 10:33:27;;;;;;;16.63;11.82;;;14.00;99.90;;;;;;4859938;29;20055;-93
2021/12/21 10:35:59;;;;;;;15.30;11.23;;;14.10;99.90;;;;;;4889086;29;20040;-91
2021/12/21 10:38:58;;;;;;;13.82;10.65;;;14.10;99.90;;;;;;4923249;29;20028;-92
2021/12/21 10:41:39;;;;;;;15.70;10.95;;;14.30;99.90;;;;;;4888408;29;20084;-90
2021/12/21 10:44:20;;;;;;;13.05;10.48;;;14.50;99.90;;;;;;4901323;29;20017;-91
2021/12/21 10:46:53;;;;;;;12.10;9.48;;;14.90;99.90;;;;;;4903228;29;20079;-92
2021/12/21 10:49:26;;;;;;;14.02;10.75;;;15.00;99.90;;;;;;4886364;29;20044;-93
2021/12/21 10:52:09;;;;;;;13.18;9.65;;;15.00;99.90;;;;;;4892911;29;20037;-92
2021/12/21 10:54:40;;;;;;;12.25;9.68;;;14.90;99.90;;;;;;4900083;29;20037;-93
2021/12/21 10:57:18;;;;;;;14.45;10.02;;;15.00;99.90;;;;;;4895213;29;20058;-91
2021/12/21 10:59:53;;;;;;;12.32;9.60;;;15.10;99.90;;;;;;4884687;29;20036;-93
2021/12/21 11:02:35;;;;;;;15.40;9.77;;;15.20;99.90;;;;;;4897981;29;20040;-93
2021/12/21 11:05:18;;;;;;;13.35;9.48;;;15.40;99.90;;;;;;4880995;29;20111;-91
2021/12/21 11:08:14;;;;;;;12.10;9.25;;;15.40;99.90;;;;;;4885222;29;20055;-92
2021/12/21 11:10:51;;;;;;;12.35;9.25;;;15.60;99.90;;;;;;4888812;29;20123;-93
2021/12/21 11:13:29;;;;;;;11.75;8.77;;;15.90;99.90;;;;;;4884154;29;20021;-93
2021/12/21 11:16:04;;;;;;;11.20;9.07;;;16.10;99.90;;;;;;4885264;29;20032;-94
2021/12/21 11:19:04;;;;;;;12.07;9.40;;;16.30;99.90;;;;;;4887611;29;20056;-94
2021/12/21 11:21:35;;;;;;;13.48;10.02;;;16.40;99.90;;;;;;4870264;29;20071;-95
2021/12/21 11:24:06;;;;;;;11.68;8.73;;;16.20;99.90;;;;;;4898779;29;20032;-95
2021/12/21 11:26:53;;;;;;;13.43;9.77;;;16.20;99.90;;;;;;4899710;29;20024;-93
2021/12/21 11:29:43;;;;;;;11.15;8.68;;;16.40;99.90;;;;;;4873063;29;20128;-91
2021/12/21 11:32:38;;;;;;;12.75;8.38;;;16.50;99.90;;;;;;4827976;29;20133;-93
2021/12/21 11:37:56;;;;;;;14.00;8.25;;;16.60;99.90;;;;;;4906089;29;20035;-89
2021/12/21 11:41:18;;;;;;;;;;;;;;;;;;;;;
2021/12/21 11:44:12;;;;;;;11.65;8.55;;;16.00;99.90;;;;;;4901785;29;20060;-94
2021/12/21 11:47:05;;;;;;;12.55;8.77;;;13.70;99.90;;;;;;4901465;29;20064;-93
2021/12/21 11:49:43;;;;;;;12.35;9.15;;;11.60;99.90;;;;;;4871677;29;20060;-93
2021/12/21 11:52:23;;;;;;;12.50;9.25;;;10.20;99.90;;;;;;4889115;29;20017;-92
2021/12/21 11:55:18;;;;;;;13.05;9.88;;;9.10;99.90;;;;;;4916856;29;20063;-93
2021/12/21 11:58:09;;;;;;;14.48;10.27;;;8.20;99.90;;;;;;4888984;29;20111;-94
2021/12/21 12:00:49;;;;;;;15.77;11.65;;;7.30;99.90;;;;;;4898937;29;20532;-93
2021/12/21 12:03:20;;;;;;;17.75;12.63;;;6.90;99.90;;;;;;4883805;29;20025;-94
2021/12/21 12:06:07;;;;;;;14.77;10.93;;;6.60;99.90;;;;;;4887474;29;20053;-93
2021/12/21 12:08:54;;;;;;;13.85;9.80;;;6.40;99.90;;;;;;4888238;29;20607;-93
2021/12/21 12:11:35;;;;;;;13.40;10.00;;;6.10;99.90;;;;;;4893709;29;20377;-93
2021/12/21 12:14:05;;;;;;;12.45;9.48;;;5.80;99.90;;;;;;4885127;29;20131;-92
2021/12/21 12:16:56;;;;;;;14.27;10.18;;;5.70;99.90;;;;;;4883720;29;20028;-92
2021/12/21 12:19:43;;;;;;;14.77;9.55;;;5.50;99.90;;;;;;4901070;29;20048;-92
2021/12/21 12:22:16;;;;;;;12.07;9.07;;;5.40;99.90;;;;;;4900799;29;20032;-94
2021/12/21 12:24:57;;;;;;;12.75;9.65;;;5.40;99.90;;;;;;4885812;29;20493;-94
2021/12/21 12:27:27;;;;;;;16.02;10.70;;;5.30;99.90;;;;;;4886986;29;20037;-92
2021/12/21 12:29:57;;;;;;;13.05;9.60;;;5.30;99.90;;;;;;4892451;29;20063;-92
2021/12/21 12:32:33;;;;;;;12.57;8.93;;;5.20;99.90;;;;;;4891803;29;20037;-93
2021/12/21 12:35:20;;;;;;;13.50;9.48;;;5.20;99.90;;;;;;4892407;29;20427;-93
2021/12/21 12:38:04;;;;;;;13.90;9.77;;;5.00;99.90;;;;;;4885621;29;20126;-92
2021/12/21 12:40:47;;;;;;;14.10;9.93;;;5.00;99.90;;;;;;4884468;29;20036;-93
2021/12/21 12:43:19;;;;;;;14.18;8.40;;;5.00;99.90;;;;;;4866919;29;20031;-92
2021/12/21 12:46:02;;;;;;;11.60;7.95;;;4.90;99.90;;;;;;4885175;29;20060;-91
2021/12/21 12:48:53;;;;;;;11.82;7.90;;;4.90;99.90;;;;;;4887019;29;20092;-93
2021/12/21 12:51:37;;;;;;;11.35;7.70;;;4.90;99.90;;;;;;4897254;29;20044;-92
2021/12/21 12:54:21;;;;;;;12.13;7.47;;;4.80;99.90;;;;;;4890624;29;20092;-93
2021/12/21 12:57:21;;;;;;;11.63;7.43;;;4.70;99.90;;;;;;4884438;29;20156;-93
2021/12/21 13:00:26;;;;;;;10.45;7.05;;;4.60;99.90;;;;;;4884156;29;20073;-89
2021/12/21 13:03:15;;;;;;;11.50;8.25;;;4.60;99.90;;;;;;4883564;29;20048;-91
2021/12/21 13:05:52;;;;;;;9.48;6.82;;;4.60;99.90;;;;;;4866632;29;20111;-91
2021/12/21 13:08:22;;;;;;;11.13;7.28;;;4.60;99.90;;;;;;4867816;29;20112;-90
2021/12/21 13:10:58;;;;;;;15.13;10.10;;;4.60;99.90;;;;;;4866486;29;20026;-91
2021/12/21 13:13:42;;;;;;;19.23;11.55;;;4.60;99.90;;;;;;4887598;29;20032;-90
2021/12/21 13:16:28;;;;;;;14.45;10.20;;;4.60;99.90;;;;;;4884140;29;20025;-90
2021/12/21 13:18:58;;;;;;;14.52;9.85;;;4.50;99.90;;;;;;4884726;29;20044;-91
2021/12/21 13:21:58;;;;;;;16.15;9.30;;;4.40;99.90;;;;;;4894164;29;20048;-89
2021/12/21 13:24:33;;;;;;;13.90;8.75;;;4.40;99.90;;;;;;4905650;29;20084;-89
2021/12/21 13:27:07;;;;;;;12.70;8.25;;;4.40;99.90;;;;;;4905123;29;20037;-88
2021/12/21 13:29:35;;;;;;;11.27;8.00;;;4.40;99.90;;;;;;4886384;29;20037;-91
2021/12/21 13:32:08;;;;;;;12.85;8.02;;;4.30;99.90;;;;;;4886375;29;20033;-89
2021/12/21 13:34:44;;;;;;;12.88;8.35;;;4.60;99.90;;;;;;4892267;29;20039;-89
2021/12/21 13:37:16;;;;;;;11.15;7.55;;;5.50;99.90;;;;;;4887874;29;20029;-89
2021/12/21 13:40:00;;;;;;;11.55;7.72;;;6.10;99.90;;;;;;4884731;29;20037;-89
2021/12/21 13:42:35;;;;;;;9.45;6.72;;;6.30;99.90;;;;;;4885570;29;20184;-88
2021/12/21 13:45:05;;;;;;;10.32;6.95;;;5.90;99.90;;;;;;4883076;29;20061;-89
2021/12/21 13:47:54;;;;;;;10.50;7.22;;;5.60;99.90;;;;;;4882101;29;20121;-88
2021/12/21 13:50:26;;;;;;;11.98;7.55;;;5.30;99.90;;;;;;4902389;29;20500;-89
2021/12/21 13:52:56;;;;;;;10.75;7.18;;;5.00;99.90;;;;;;4881561;29;20104;-86
2021/12/21 13:55:24;;;;;;;11.70;7.28;;;4.70;99.90;;;;;;4899528;29;20401;-89
2021/12/21 13:57:56;;;;;;;9.73;6.88;;;4.60;99.90;;;;;;4912729;29;20031;-87
2021/12/21 14:00:25;;;;;;;11.82;7.60;;;4.50;99.90;;;;;;4882903;29;20072;-88
2021/12/21 14:03:01;;;;;;;11.13;7.15;;;4.30;99.90;;;;;;4884192;29;20029;-89
2021/12/21 14:05:49;;;;;;;17.98;8.00;;;4.20;99.90;;;;;;4901271;29;20036;-89
2021/12/21 14:08:21;;;;;;;15.15;7.68;;;4.10;99.90;;;;;;4883748;29;20059;-89
2021/12/21 14:10:53;;;;;;;11.07;7.25;;;4.10;99.90;;;;;;4867744;29;20033;-88
2021/12/21 14:13:29;;;;;;;10.93;7.60;;;4.00;99.90;;;;;;4887661;29;20044;-88
2021/12/21 14:15:56;;;;;;;13.18;7.88;;;4.00;99.90;;;;;;4889773;29;20033;-89
2021/12/21 14:18:41;;;;;;;14.02;8.20;;;4.00;99.90;;;;;;4899853;29;20043;-88
2021/12/21 14:21:14;;;;;;;10.95;7.82;;;4.00;99.90;;;;;;4867837;29;20077;-87
2021/12/21 14:23:44;;;;;;;10.95;7.72;;;3.90;99.90;;;;;;4883908;29;20036;-88
2021/12/21 14:26:15;;;;;;;12.23;7.68;;;3.90;99.90;;;;;;4899932;29;20028;-89
2021/12/21 14:28:51;;;;;;;12.20;7.95;;;3.80;99.90;;;;;;4899891;29;20029;-89
2021/12/21 14:31:49;;;;;;;12.73;8.63;;;3.80;99.90;;;;;;4888166;29;20124;-89
2021/12/21 14:34:28;;;;;;;13.40;8.55;;;3.80;99.90;;;;;;4905192;29;20084;-90
2021/12/21 14:36:56;;;;;;;13.18;8.40;;;3.80;99.90;;;;;;4915768;29;20036;-88
2021/12/21 14:39:27;;;;;;;14.52;8.32;;;3.70;99.90;;;;;;4900411;29;20072;-89
2021/12/21 14:41:59;;;;;;;12.20;8.35;;;3.70;99.90;;;;;;4898591;29;20055;-88
2021/12/21 14:44:31;;;;;;;15.70;10.10;;;3.60;99.90;;;;;;4918209;29;20041;-89
2021/12/21 14:47:10;;;;;;;14.57;8.98;;;3.50;99.90;;;;;;4918547;29;20072;-89
2021/12/21 14:49:50;;;;;;;13.60;9.50;;;3.50;99.90;;;;;;4888975;29;20036;-89
2021/12/21 14:52:39;;;;;;;15.40;10.63;;;3.40;99.90;;;;;;4884356;29;20059;-90